sensor_id;sensor_type;location;lat;lon;timestamp;P1;durP1;ratioP1;P2;durP2;ratioP2
50066;SDS011;35952;52.524;13.340;2023-07-20T00:01:51;7.20;;;5.70;;
50066;SDS011;35952;52.524;13.340;2023-07-20T00:04:17;6.33;;;5.77;;
50066;SDS011;35952;52.524;13.340;2023-07-20T00:06:42;5.63;;;5.23;;
50066;SDS011;35952;52.524;13.340;2023-07-20T00:09:08;6.10;;;5.60;;
50066;SDS011;35952;52.524;13.340;2023-07-20T00:11:35;6.37;;;5.87;;
50066;SDS011;35952;52.524;13.340;2023-07-20T00:14:02;6.57;;;5.97;;
50066;SDS011;35952;52.524;13.340;2023-07-20T00:16:29;6.83;;;6.13;;
50066;SDS011;35952;52.524;13.340;2023-07-20T00:18:54;6.53;;;5.93;;
50066;SDS011;35952;52.524;13.340;2023-07-20T00:21:20;7.77;;;6.80;;
50066;SDS011;35952;52.524;13.340;2023-07-20T00:23:45;10.57;;;7.80;;
50066;SDS011;35952;52.524;13.340;2023-07-20T00:26:11;8.63;;;7.83;;
50066;SDS011;35952;52.524;13.340;2023-07-20T00:28:36;9.80;;;9.00;;
50066;SDS011;35952;52.524;13.340;2023-07-20T00:31:02;9.47;;;8.67;;
50066;SDS011;35952;52.524;13.340;2023-07-20T00:33:29;9.40;;;8.60;;
50066;SDS011;35952;52.524;13.340;2023-07-20T00:35:54;7.97;;;7.37;;
50066;SDS011;35952;52.524;13.340;2023-07-20T00:38:20;8.00;;;7.30;;
50066;SDS011;35952;52.524;13.340;2023-07-20T00:40:46;7.47;;;6.87;;
50066;SDS011;35952;52.524;13.340;2023-07-20T00:43:13;7.53;;;6.93;;
50066;SDS011;35952;52.524;13.340;2023-07-20T00:45:38;7.73;;;6.90;;
50066;SDS011;35952;52.524;13.340;2023-07-20T00:48:04;7.47;;;6.97;;
50066;SDS011;35952;52.524;13.340;2023-07-20T00:50:31;8.03;;;7.30;;
50066;SDS011;35952;52.524;13.340;2023-07-20T00:52:57;7.57;;;6.97;;
50066;SDS011;35952;52.524;13.340;2023-07-20T00:55:23;7.33;;;6.83;;
50066;SDS011;35952;52.524;13.340;2023-07-20T00:57:50;7.90;;;7.20;;
50066;SDS011;35952;52.524;13.340;2023-07-20T01:00:16;8.30;;;7.50;;
50066;SDS011;35952;52.524;13.340;2023-07-20T01:02:42;8.63;;;7.83;;
50066;SDS011;35952;52.524;13.340;2023-07-20T01:05:08;8.77;;;7.97;;
50066;SDS011;35952;52.524;13.340;2023-07-20T01:07:38;7.77;;;7.07;;
50066;SDS011;35952;52.524;13.340;2023-07-20T01:12:50;8.87;;;7.97;;
50066;SDS011;35952;52.524;13.340;2023-07-20T01:15:17;8.97;;;7.30;;
50066;SDS011;35952;52.524;13.340;2023-07-20T01:17:43;7.60;;;7.00;;
50066;SDS011;35952;52.524;13.340;2023-07-20T01:20:10;8.00;;;7.40;;
50066;SDS011;35952;52.524;13.340;2023-07-20T01:25:57;10.20;;;7.70;;
50066;SDS011;35952;52.524;13.340;2023-07-20T01:33:50;8.27;;;7.57;;
50066;SDS011;35952;52.524;13.340;2023-07-20T01:36:17;9.07;;;8.27;;
50066;SDS011;35952;52.524;13.340;2023-07-20T01:38:45;9.57;;;8.67;;
50066;SDS011;35952;52.524;13.340;2023-07-20T01:41:11;8.30;;;7.60;;
50066;SDS011;35952;52.524;13.340;2023-07-20T01:43:37;9.63;;;8.83;;
50066;SDS011;35952;52.524;13.340;2023-07-20T01:46:02;8.70;;;8.10;;
50066;SDS011;35952;52.524;13.340;2023-07-20T01:48:28;11.70;;;8.57;;
50066;SDS011;35952;52.524;13.340;2023-07-20T01:50:53;9.57;;;8.77;;
50066;SDS011;35952;52.524;13.340;2023-07-20T01:53:20;9.10;;;8.40;;
50066;SDS011;35952;52.524;13.340;2023-07-20T01:55:46;8.97;;;8.27;;
50066;SDS011;35952;52.524;13.340;2023-07-20T01:58:11;9.20;;;8.40;;
50066;SDS011;35952;52.524;13.340;2023-07-20T02:00:37;8.80;;;8.00;;
50066;SDS011;35952;52.524;13.340;2023-07-20T02:03:03;8.43;;;7.63;;
50066;SDS011;35952;52.524;13.340;2023-07-20T02:05:29;8.07;;;7.27;;
50066;SDS011;35952;52.524;13.340;2023-07-20T02:07:54;9.70;;;8.00;;
50066;SDS011;35952;52.524;13.340;2023-07-20T02:10:20;8.17;;;7.47;;
50066;SDS011;35952;52.524;13.340;2023-07-20T02:12:45;8.30;;;7.70;;
50066;SDS011;35952;52.524;13.340;2023-07-20T02:15:11;8.63;;;8.00;;
50066;SDS011;35952;52.524;13.340;2023-07-20T02:17:38;8.40;;;7.80;;
50066;SDS011;35952;52.524;13.340;2023-07-20T02:20:06;8.80;;;8.10;;
50066;SDS011;35952;52.524;13.340;2023-07-20T02:22:34;9.23;;;8.50;;
50066;SDS011;35952;52.524;13.340;2023-07-20T02:24:59;8.83;;;8.13;;
50066;SDS011;35952;52.524;13.340;2023-07-20T02:27:25;10.03;;;9.13;;
50066;SDS011;35952;52.524;13.340;2023-07-20T02:29:50;10.07;;;8.53;;
50066;SDS011;35952;52.524;13.340;2023-07-20T02:32:16;9.03;;;8.13;;
50066;SDS011;35952;52.524;13.340;2023-07-20T02:34:41;9.63;;;8.83;;
50066;SDS011;35952;52.524;13.340;2023-07-20T02:37:07;10.53;;;9.63;;
50066;SDS011;35952;52.524;13.340;2023-07-20T02:39:32;9.20;;;8.30;;
50066;SDS011;35952;52.524;13.340;2023-07-20T02:41:58;10.20;;;9.20;;
50066;SDS011;35952;52.524;13.340;2023-07-20T02:44:24;10.43;;;9.63;;
50066;SDS011;35952;52.524;13.340;2023-07-20T02:46:49;9.10;;;8.40;;
50066;SDS011;35952;52.524;13.340;2023-07-20T02:49:15;8.43;;;7.73;;
50066;SDS011;35952;52.524;13.340;2023-07-20T02:51:41;10.37;;;9.47;;
50066;SDS011;35952;52.524;13.340;2023-07-20T02:54:06;9.20;;;8.40;;
50066;SDS011;35952;52.524;13.340;2023-07-20T02:56:33;11.93;;;10.73;;
50066;SDS011;35952;52.524;13.340;2023-07-20T02:58:58;11.60;;;10.60;;
50066;SDS011;35952;52.524;13.340;2023-07-20T03:01:24;12.40;;;11.03;;
50066;SDS011;35952;52.524;13.340;2023-07-20T03:03:51;12.97;;;11.73;;
50066;SDS011;35952;52.524;13.340;2023-07-20T03:06:17;12.73;;;11.43;;
50066;SDS011;35952;52.524;13.340;2023-07-20T03:08:43;13.03;;;11.30;;
50066;SDS011;35952;52.524;13.340;2023-07-20T03:11:10;12.13;;;11.03;;
50066;SDS011;35952;52.524;13.340;2023-07-20T03:13:36;13.77;;;12.57;;
50066;SDS011;35952;52.524;13.340;2023-07-20T03:16:01;12.33;;;11.23;;
50066;SDS011;35952;52.524;13.340;2023-07-20T03:18:27;13.50;;;12.23;;
50066;SDS011;35952;52.524;13.340;2023-07-20T03:20:52;12.67;;;11.67;;
50066;SDS011;35952;52.524;13.340;2023-07-20T03:23:18;14.83;;;13.20;;
50066;SDS011;35952;52.524;13.340;2023-07-20T03:25:43;13.90;;;12.60;;
50066;SDS011;35952;52.524;13.340;2023-07-20T03:28:09;14.27;;;12.90;;
50066;SDS011;35952;52.524;13.340;2023-07-20T03:30:34;14.67;;;13.17;;
50066;SDS011;35952;52.524;13.340;2023-07-20T03:33:00;14.80;;;13.37;;
50066;SDS011;35952;52.524;13.340;2023-07-20T03:35:25;13.60;;;12.10;;
50066;SDS011;35952;52.524;13.340;2023-07-20T03:37:51;15.83;;;12.87;;
50066;SDS011;35952;52.524;13.340;2023-07-20T03:40:16;13.93;;;12.67;;
50066;SDS011;35952;52.524;13.340;2023-07-20T03:42:42;12.87;;;11.27;;
50066;SDS011;35952;52.524;13.340;2023-07-20T03:45:08;12.50;;;11.60;;
50066;SDS011;35952;52.524;13.340;2023-07-20T03:47:34;13.30;;;12.00;;
50066;SDS011;35952;52.524;13.340;2023-07-20T03:49:59;11.90;;;10.90;;
50066;SDS011;35952;52.524;13.340;2023-07-20T03:52:25;11.83;;;10.70;;
50066;SDS011;35952;52.524;13.340;2023-07-20T03:54:50;13.80;;;12.57;;
50066;SDS011;35952;52.524;13.340;2023-07-20T03:57:19;12.17;;;11.17;;
50066;SDS011;35952;52.524;13.340;2023-07-20T03:59:44;11.30;;;10.30;;
50066;SDS011;35952;52.524;13.340;2023-07-20T04:02:11;11.43;;;10.53;;
50066;SDS011;35952;52.524;13.340;2023-07-20T04:04:36;10.57;;;9.67;;
50066;SDS011;35952;52.524;13.340;2023-07-20T04:07:02;12.30;;;11.20;;
50066;SDS011;35952;52.524;13.340;2023-07-20T04:09:28;11.57;;;10.57;;
50066;SDS011;35952;52.524;13.340;2023-07-20T04:11:53;12.30;;;10.00;;
50066;SDS011;35952;52.524;13.340;2023-07-20T04:14:19;11.20;;;10.10;;
50066;SDS011;35952;52.524;13.340;2023-07-20T04:16:46;12.57;;;11.47;;
50066;SDS011;35952;52.524;13.340;2023-07-20T04:19:12;11.70;;;10.80;;
50066;SDS011;35952;52.524;13.340;2023-07-20T04:21:40;11.40;;;10.30;;
50066;SDS011;35952;52.524;13.340;2023-07-20T04:24:06;11.70;;;10.70;;
50066;SDS011;35952;52.524;13.340;2023-07-20T04:26:32;14.77;;;10.43;;
50066;SDS011;35952;52.524;13.340;2023-07-20T04:28:57;12.40;;;11.23;;
50066;SDS011;35952;52.524;13.340;2023-07-20T04:31:24;10.83;;;9.93;;
50066;SDS011;35952;52.524;13.340;2023-07-20T04:33:49;12.20;;;11.13;;
50066;SDS011;35952;52.524;13.340;2023-07-20T04:36:15;12.77;;;11.57;;
50066;SDS011;35952;52.524;13.340;2023-07-20T04:38:44;11.53;;;10.60;;
50066;SDS011;35952;52.524;13.340;2023-07-20T04:41:12;11.57;;;10.57;;
50066;SDS011;35952;52.524;13.340;2023-07-20T04:43:42;12.63;;;11.43;;
50066;SDS011;35952;52.524;13.340;2023-07-20T04:46:10;11.43;;;10.43;;
50066;SDS011;35952;52.524;13.340;2023-07-20T04:48:36;12.20;;;11.20;;
50066;SDS011;35952;52.524;13.340;2023-07-20T04:51:02;10.67;;;9.67;;
50066;SDS011;35952;52.524;13.340;2023-07-20T04:53:27;10.93;;;10.03;;
50066;SDS011;35952;52.524;13.340;2023-07-20T04:55:53;11.80;;;10.70;;
50066;SDS011;35952;52.524;13.340;2023-07-20T04:58:19;11.37;;;10.27;;
50066;SDS011;35952;52.524;13.340;2023-07-20T05:00:47;10.67;;;9.77;;
50066;SDS011;35952;52.524;13.340;2023-07-20T05:03:14;11.07;;;10.10;;
50066;SDS011;35952;52.524;13.340;2023-07-20T05:05:39;10.60;;;9.70;;
50066;SDS011;35952;52.524;13.340;2023-07-20T05:08:05;10.53;;;9.63;;
50066;SDS011;35952;52.524;13.340;2023-07-20T05:10:30;11.60;;;8.87;;
50066;SDS011;35952;52.524;13.340;2023-07-20T05:12:57;10.37;;;9.47;;
50066;SDS011;35952;52.524;13.340;2023-07-20T05:15:23;10.07;;;9.33;;
50066;SDS011;35952;52.524;13.340;2023-07-20T05:17:48;10.80;;;9.80;;
50066;SDS011;35952;52.524;13.340;2023-07-20T05:20:14;11.07;;;9.07;;
50066;SDS011;35952;52.524;13.340;2023-07-20T05:22:39;11.27;;;10.13;;
50066;SDS011;35952;52.524;13.340;2023-07-20T05:25:06;11.20;;;10.20;;
50066;SDS011;35952;52.524;13.340;2023-07-20T05:27:33;11.30;;;10.20;;
50066;SDS011;35952;52.524;13.340;2023-07-20T05:29:59;11.80;;;10.20;;
50066;SDS011;35952;52.524;13.340;2023-07-20T05:32:24;12.00;;;10.90;;
50066;SDS011;35952;52.524;13.340;2023-07-20T05:34:53;11.43;;;10.47;;
50066;SDS011;35952;52.524;13.340;2023-07-20T05:37:19;10.90;;;9.90;;
50066;SDS011;35952;52.524;13.340;2023-07-20T05:39:45;12.27;;;11.10;;
50066;SDS011;35952;52.524;13.340;2023-07-20T05:42:10;12.10;;;10.90;;
50066;SDS011;35952;52.524;13.340;2023-07-20T05:44:36;13.70;;;10.83;;
50066;SDS011;35952;52.524;13.340;2023-07-20T05:47:01;12.17;;;11.17;;
50066;SDS011;35952;52.524;13.340;2023-07-20T05:49:27;10.50;;;9.47;;
50066;SDS011;35952;52.524;13.340;2023-07-20T05:51:53;14.90;;;10.87;;
50066;SDS011;35952;52.524;13.340;2023-07-20T05:54:20;10.90;;;9.80;;
50066;SDS011;35952;52.524;13.340;2023-07-20T05:56:46;13.37;;;9.50;;
50066;SDS011;35952;52.524;13.340;2023-07-20T05:59:11;11.57;;;9.80;;
50066;SDS011;35952;52.524;13.340;2023-07-20T06:01:37;11.30;;;10.30;;
50066;SDS011;35952;52.524;13.340;2023-07-20T06:04:03;10.17;;;9.27;;
50066;SDS011;35952;52.524;13.340;2023-07-20T06:06:28;10.73;;;9.87;;
50066;SDS011;35952;52.524;13.340;2023-07-20T06:08:54;10.33;;;9.43;;
50066;SDS011;35952;52.524;13.340;2023-07-20T06:11:20;11.03;;;10.03;;
50066;SDS011;35952;52.524;13.340;2023-07-20T06:13:45;11.13;;;10.23;;
50066;SDS011;35952;52.524;13.340;2023-07-20T06:16:11;11.47;;;10.47;;
50066;SDS011;35952;52.524;13.340;2023-07-20T06:18:36;10.13;;;9.33;;
50066;SDS011;35952;52.524;13.340;2023-07-20T06:21:02;9.83;;;8.93;;
50066;SDS011;35952;52.524;13.340;2023-07-20T06:23:27;9.60;;;8.80;;
50066;SDS011;35952;52.524;13.340;2023-07-20T06:25:53;8.77;;;8.07;;
50066;SDS011;35952;52.524;13.340;2023-07-20T06:28:18;9.43;;;8.63;;
50066;SDS011;35952;52.524;13.340;2023-07-20T06:30:44;8.77;;;7.90;;
50066;SDS011;35952;52.524;13.340;2023-07-20T06:33:10;11.10;;;8.00;;
50066;SDS011;35952;52.524;13.340;2023-07-20T06:35:35;9.20;;;7.30;;
50066;SDS011;35952;52.524;13.340;2023-07-20T06:38:01;8.63;;;7.63;;
50066;SDS011;35952;52.524;13.340;2023-07-20T06:40:28;8.23;;;7.17;;
50066;SDS011;35952;52.524;13.340;2023-07-20T06:42:53;7.07;;;6.37;;
50066;SDS011;35952;52.524;13.340;2023-07-20T06:45:19;7.40;;;5.93;;
50066;SDS011;35952;52.524;13.340;2023-07-20T06:47:44;8.83;;;6.90;;
50066;SDS011;35952;52.524;13.340;2023-07-20T06:50:10;7.10;;;6.47;;
50066;SDS011;35952;52.524;13.340;2023-07-20T06:52:36;8.80;;;4.67;;
50066;SDS011;35952;52.524;13.340;2023-07-20T06:55:01;5.50;;;3.90;;
50066;SDS011;35952;52.524;13.340;2023-07-20T06:57:27;3.30;;;3.10;;
50066;SDS011;35952;52.524;13.340;2023-07-20T06:59:53;4.33;;;3.93;;
50066;SDS011;35952;52.524;13.340;2023-07-20T07:02:18;4.53;;;3.80;;
50066;SDS011;35952;52.524;13.340;2023-07-20T07:04:44;3.33;;;3.00;;
50066;SDS011;35952;52.524;13.340;2023-07-20T07:07:11;3.90;;;3.53;;
50066;SDS011;35952;52.524;13.340;2023-07-20T07:09:39;4.93;;;3.17;;
50066;SDS011;35952;52.524;13.340;2023-07-20T07:12:05;4.83;;;3.03;;
50066;SDS011;35952;52.524;13.340;2023-07-20T07:14:31;2.90;;;2.70;;
50066;SDS011;35952;52.524;13.340;2023-07-20T07:16:56;4.80;;;2.40;;
50066;SDS011;35952;52.524;13.340;2023-07-20T07:19:22;2.83;;;2.50;;
50066;SDS011;35952;52.524;13.340;2023-07-20T07:21:47;2.47;;;2.27;;
50066;SDS011;35952;52.524;13.340;2023-07-20T07:24:13;3.63;;;2.40;;
50066;SDS011;35952;52.524;13.340;2023-07-20T07:26:38;2.37;;;2.20;;
50066;SDS011;35952;52.524;13.340;2023-07-20T07:29:04;3.17;;;2.23;;
50066;SDS011;35952;52.524;13.340;2023-07-20T07:31:29;2.10;;;2.00;;
50066;SDS011;35952;52.524;13.340;2023-07-20T07:33:55;2.63;;;2.40;;
50066;SDS011;35952;52.524;13.340;2023-07-20T07:36:21;2.57;;;2.33;;
50066;SDS011;35952;52.524;13.340;2023-07-20T07:38:49;4.30;;;2.70;;
50066;SDS011;35952;52.524;13.340;2023-07-20T07:41:15;3.93;;;3.63;;
50066;SDS011;35952;52.524;13.340;2023-07-20T07:43:40;2.90;;;2.70;;
50066;SDS011;35952;52.524;13.340;2023-07-20T07:46:06;3.40;;;3.20;;
50066;SDS011;35952;52.524;13.340;2023-07-20T07:48:32;3.50;;;2.80;;
50066;SDS011;35952;52.524;13.340;2023-07-20T07:50:57;2.57;;;2.37;;
50066;SDS011;35952;52.524;13.340;2023-07-20T07:53:23;2.10;;;2.00;;
50066;SDS011;35952;52.524;13.340;2023-07-20T07:55:50;2.03;;;1.93;;
50066;SDS011;35952;52.524;13.340;2023-07-20T07:58:16;1.93;;;1.83;;
50066;SDS011;35952;52.524;13.340;2023-07-20T08:00:41;2.13;;;2.00;;
50066;SDS011;35952;52.524;13.340;2023-07-20T08:03:08;3.77;;;1.90;;
50066;SDS011;35952;52.524;13.340;2023-07-20T08:05:34;1.60;;;1.50;;
50066;SDS011;35952;52.524;13.340;2023-07-20T08:08:02;1.90;;;1.80;;
50066;SDS011;35952;52.524;13.340;2023-07-20T08:10:31;2.23;;;2.10;;
50066;SDS011;35952;52.524;13.340;2023-07-20T08:12:56;2.30;;;2.07;;
50066;SDS011;35952;52.524;13.340;2023-07-20T08:15:22;1.80;;;1.70;;
50066;SDS011;35952;52.524;13.340;2023-07-20T08:17:48;2.60;;;2.30;;
50066;SDS011;35952;52.524;13.340;2023-07-20T08:20:14;1.90;;;1.80;;
50066;SDS011;35952;52.524;13.340;2023-07-20T08:22:41;1.70;;;1.60;;
50066;SDS011;35952;52.524;13.340;2023-07-20T08:25:07;1.60;;;1.50;;
50066;SDS011;35952;52.524;13.340;2023-07-20T08:27:33;1.70;;;1.60;;
50066;SDS011;35952;52.524;13.340;2023-07-20T08:29:59;3.73;;;1.70;;
50066;SDS011;35952;52.524;13.340;2023-07-20T08:32:25;1.60;;;1.50;;
50066;SDS011;35952;52.524;13.340;2023-07-20T08:34:52;4.50;;;1.70;;
50066;SDS011;35952;52.524;13.340;2023-07-20T08:37:17;1.70;;;1.40;;
50066;SDS011;35952;52.524;13.340;2023-07-20T08:39:43;1.77;;;1.67;;
50066;SDS011;35952;52.524;13.340;2023-07-20T08:42:09;1.93;;;1.30;;
50066;SDS011;35952;52.524;13.340;2023-07-20T08:44:35;1.70;;;1.60;;
50066;SDS011;35952;52.524;13.340;2023-07-20T08:47:03;1.50;;;1.40;;
50066;SDS011;35952;52.524;13.340;2023-07-20T08:49:33;2.03;;;1.67;;
50066;SDS011;35952;52.524;13.340;2023-07-20T08:52:00;2.40;;;1.30;;
50066;SDS011;35952;52.524;13.340;2023-07-20T08:54:27;1.87;;;1.40;;
50066;SDS011;35952;52.524;13.340;2023-07-20T08:56:55;1.83;;;1.60;;
50066;SDS011;35952;52.524;13.340;2023-07-20T08:59:22;2.30;;;1.40;;
50066;SDS011;35952;52.524;13.340;2023-07-20T09:01:49;1.47;;;1.37;;
50066;SDS011;35952;52.524;13.340;2023-07-20T09:04:19;1.87;;;1.43;;
50066;SDS011;35952;52.524;13.340;2023-07-20T09:06:44;1.67;;;1.27;;
50066;SDS011;35952;52.524;13.340;2023-07-20T09:09:10;3.33;;;1.63;;
50066;SDS011;35952;52.524;13.340;2023-07-20T09:11:36;1.50;;;1.40;;
50066;SDS011;35952;52.524;13.340;2023-07-20T09:14:08;1.93;;;1.80;;
50066;SDS011;35952;52.524;13.340;2023-07-20T09:16:46;2.20;;;1.70;;
50066;SDS011;35952;52.524;13.340;2023-07-20T09:19:15;1.60;;;1.50;;
50066;SDS011;35952;52.524;13.340;2023-07-20T09:21:43;3.10;;;1.60;;
50066;SDS011;35952;52.524;13.340;2023-07-20T09:24:10;1.70;;;1.60;;
50066;SDS011;35952;52.524;13.340;2023-07-20T09:26:40;1.67;;;1.50;;
50066;SDS011;35952;52.524;13.340;2023-07-20T09:29:08;1.57;;;1.47;;
50066;SDS011;35952;52.524;13.340;2023-07-20T09:31:36;1.70;;;1.60;;
50066;SDS011;35952;52.524;13.340;2023-07-20T09:34:03;1.60;;;1.50;;
50066;SDS011;35952;52.524;13.340;2023-07-20T09:36:29;2.23;;;1.50;;
50066;SDS011;35952;52.524;13.340;2023-07-20T09:38:59;2.27;;;1.40;;
50066;SDS011;35952;52.524;13.340;2023-07-20T09:41:25;1.37;;;1.27;;
50066;SDS011;35952;52.524;13.340;2023-07-20T09:43:51;2.63;;;1.60;;
50066;SDS011;35952;52.524;13.340;2023-07-20T09:46:18;2.97;;;1.40;;
50066;SDS011;35952;52.524;13.340;2023-07-20T09:48:54;2.27;;;2.07;;
50066;SDS011;35952;52.524;13.340;2023-07-20T09:51:23;1.87;;;1.60;;
50066;SDS011;35952;52.524;13.340;2023-07-20T09:53:49;2.00;;;1.90;;
50066;SDS011;35952;52.524;13.340;2023-07-20T09:56:17;2.03;;;1.93;;
50066;SDS011;35952;52.524;13.340;2023-07-20T09:58:47;1.97;;;1.87;;
50066;SDS011;35952;52.524;13.340;2023-07-20T10:01:13;2.70;;;2.00;;
50066;SDS011;35952;52.524;13.340;2023-07-20T10:03:45;2.07;;;1.97;;
50066;SDS011;35952;52.524;13.340;2023-07-20T10:06:13;1.80;;;1.70;;
50066;SDS011;35952;52.524;13.340;2023-07-20T10:08:42;4.00;;;3.60;;
50066;SDS011;35952;52.524;13.340;2023-07-20T10:11:12;2.23;;;2.13;;
50066;SDS011;35952;52.524;13.340;2023-07-20T10:13:42;2.50;;;2.30;;
50066;SDS011;35952;52.524;13.340;2023-07-20T10:16:10;2.83;;;1.90;;
50066;SDS011;35952;52.524;13.340;2023-07-20T10:18:58;2.27;;;2.07;;
50066;SDS011;35952;52.524;13.340;2023-07-20T10:21:33;2.33;;;1.70;;
50066;SDS011;35952;52.524;13.340;2023-07-20T10:24:03;2.40;;;2.20;;
50066;SDS011;35952;52.524;13.340;2023-07-20T10:26:29;2.07;;;1.87;;
50066;SDS011;35952;52.524;13.340;2023-07-20T10:28:56;3.10;;;2.23;;
50066;SDS011;35952;52.524;13.340;2023-07-20T10:31:22;1.90;;;1.80;;
50066;SDS011;35952;52.524;13.340;2023-07-20T10:33:50;3.30;;;2.03;;
50066;SDS011;35952;52.524;13.340;2023-07-20T10:36:20;2.27;;;2.10;;
50066;SDS011;35952;52.524;13.340;2023-07-20T10:38:54;2.20;;;2.00;;
50066;SDS011;35952;52.524;13.340;2023-07-20T10:41:27;2.80;;;2.27;;
50066;SDS011;35952;52.524;13.340;2023-07-20T10:43:57;2.73;;;2.53;;
50066;SDS011;35952;52.524;13.340;2023-07-20T10:46:33;3.53;;;2.03;;
50066;SDS011;35952;52.524;13.340;2023-07-20T10:49:01;2.20;;;2.00;;
50066;SDS011;35952;52.524;13.340;2023-07-20T10:51:27;3.20;;;2.90;;
50066;SDS011;35952;52.524;13.340;2023-07-20T10:53:54;2.03;;;1.93;;
50066;SDS011;35952;52.524;13.340;2023-07-20T10:56:23;2.30;;;2.10;;
50066;SDS011;35952;52.524;13.340;2023-07-20T10:58:55;5.90;;;2.37;;
50066;SDS011;35952;52.524;13.340;2023-07-20T11:01:28;1.87;;;1.77;;
50066;SDS011;35952;52.524;13.340;2023-07-20T11:03:57;2.30;;;2.10;;
50066;SDS011;35952;52.524;13.340;2023-07-20T11:09:02;3.50;;;2.40;;
50066;SDS011;35952;52.524;13.340;2023-07-20T11:11:42;2.23;;;2.00;;
50066;SDS011;35952;52.524;13.340;2023-07-20T11:14:10;2.60;;;2.17;;
50066;SDS011;35952;52.524;13.340;2023-07-20T11:16:45;2.40;;;2.10;;
50066;SDS011;35952;52.524;13.340;2023-07-20T11:21:45;7.23;;;2.00;;
50066;SDS011;35952;52.524;13.340;2023-07-20T11:24:11;2.70;;;2.13;;
50066;SDS011;35952;52.524;13.340;2023-07-20T11:26:44;1.70;;;1.60;;
50066;SDS011;35952;52.524;13.340;2023-07-20T11:29:12;2.40;;;2.20;;
50066;SDS011;35952;52.524;13.340;2023-07-20T11:31:39;2.13;;;2.03;;
50066;SDS011;35952;52.524;13.340;2023-07-20T11:34:07;3.10;;;2.57;;
50066;SDS011;35952;52.524;13.340;2023-07-20T11:36:36;3.07;;;2.50;;
50066;SDS011;35952;52.524;13.340;2023-07-20T11:39:01;1.93;;;1.83;;
50066;SDS011;35952;52.524;13.340;2023-07-20T11:41:29;3.73;;;2.10;;
50066;SDS011;35952;52.524;13.340;2023-07-20T11:43:56;1.83;;;1.40;;
50066;SDS011;35952;52.524;13.340;2023-07-20T11:46:22;2.50;;;2.30;;
50066;SDS011;35952;52.524;13.340;2023-07-20T11:48:47;1.63;;;1.53;;
50066;SDS011;35952;52.524;13.340;2023-07-20T11:51:16;3.43;;;1.40;;
50066;SDS011;35952;52.524;13.340;2023-07-20T11:53:45;1.90;;;1.80;;
50066;SDS011;35952;52.524;13.340;2023-07-20T11:56:11;1.30;;;1.20;;
50066;SDS011;35952;52.524;13.340;2023-07-20T11:58:41;1.70;;;1.60;;
50066;SDS011;35952;52.524;13.340;2023-07-20T12:01:08;1.87;;;1.60;;
50066;SDS011;35952;52.524;13.340;2023-07-20T12:03:34;2.50;;;1.67;;
50066;SDS011;35952;52.524;13.340;2023-07-20T12:06:06;1.60;;;1.30;;
50066;SDS011;35952;52.524;13.340;2023-07-20T12:08:32;1.43;;;1.20;;
50066;SDS011;35952;52.524;13.340;2023-07-20T12:10:58;5.23;;;1.60;;
50066;SDS011;35952;52.524;13.340;2023-07-20T12:13:24;1.53;;;1.43;;
50066;SDS011;35952;52.524;13.340;2023-07-20T12:16:06;3.37;;;1.67;;
50066;SDS011;35952;52.524;13.340;2023-07-20T12:18:34;2.50;;;1.90;;
50066;SDS011;35952;52.524;13.340;2023-07-20T12:21:00;2.33;;;1.90;;
50066;SDS011;35952;52.524;13.340;2023-07-20T12:23:27;2.00;;;1.70;;
50066;SDS011;35952;52.524;13.340;2023-07-20T12:26:01;3.90;;;2.70;;
50066;SDS011;35952;52.524;13.340;2023-07-20T12:28:26;4.83;;;3.00;;
50066;SDS011;35952;52.524;13.340;2023-07-20T12:30:51;5.23;;;3.27;;
50066;SDS011;35952;52.524;13.340;2023-07-20T12:33:21;3.93;;;1.40;;
50066;SDS011;35952;52.524;13.340;2023-07-20T12:35:47;5.73;;;2.13;;
50066;SDS011;35952;52.524;13.340;2023-07-20T12:38:14;3.53;;;2.93;;
50066;SDS011;35952;52.524;13.340;2023-07-20T12:40:40;1.33;;;1.23;;
50066;SDS011;35952;52.524;13.340;2023-07-20T12:43:06;1.47;;;1.37;;
50066;SDS011;35952;52.524;13.340;2023-07-20T12:45:32;2.60;;;1.87;;
50066;SDS011;35952;52.524;13.340;2023-07-20T12:47:58;4.60;;;1.60;;
50066;SDS011;35952;52.524;13.340;2023-07-20T12:50:23;1.53;;;1.30;;
50066;SDS011;35952;52.524;13.340;2023-07-20T12:52:49;1.47;;;1.37;;
50066;SDS011;35952;52.524;13.340;2023-07-20T12:55:14;1.40;;;1.30;;
50066;SDS011;35952;52.524;13.340;2023-07-20T12:57:40;2.17;;;1.97;;
50066;SDS011;35952;52.524;13.340;2023-07-20T13:00:10;4.53;;;1.73;;
50066;SDS011;35952;52.524;13.340;2023-07-20T13:02:37;1.73;;;1.00;;
50066;SDS011;35952;52.524;13.340;2023-07-20T13:05:03;1.43;;;1.10;;
50066;SDS011;35952;52.524;13.340;2023-07-20T13:07:29;5.47;;;1.30;;
50066;SDS011;35952;52.524;13.340;2023-07-20T13:10:04;1.87;;;1.30;;
50066;SDS011;35952;52.524;13.340;2023-07-20T13:12:32;1.23;;;1.13;;
50066;SDS011;35952;52.524;13.340;2023-07-20T13:14:58;4.50;;;1.33;;
50066;SDS011;35952;52.524;13.340;2023-07-20T13:17:27;3.90;;;0.93;;
50066;SDS011;35952;52.524;13.340;2023-07-20T13:19:54;1.77;;;1.30;;
50066;SDS011;35952;52.524;13.340;2023-07-20T13:22:20;2.50;;;1.53;;
50066;SDS011;35952;52.524;13.340;2023-07-20T13:24:46;1.00;;;0.90;;
50066;SDS011;35952;52.524;13.340;2023-07-20T13:27:15;1.50;;;1.40;;
50066;SDS011;35952;52.524;13.340;2023-07-20T13:29:44;1.57;;;1.20;;
50066;SDS011;35952;52.524;13.340;2023-07-20T13:32:12;2.80;;;1.50;;
50066;SDS011;35952;52.524;13.340;2023-07-20T13:34:38;4.53;;;1.43;;
50066;SDS011;35952;52.524;13.340;2023-07-20T13:37:04;2.40;;;1.20;;
50066;SDS011;35952;52.524;13.340;2023-07-20T13:39:30;1.00;;;0.90;;
50066;SDS011;35952;52.524;13.340;2023-07-20T13:41:55;2.90;;;1.20;;
50066;SDS011;35952;52.524;13.340;2023-07-20T13:44:21;1.20;;;1.00;;
50066;SDS011;35952;52.524;13.340;2023-07-20T13:46:47;1.20;;;1.00;;
50066;SDS011;35952;52.524;13.340;2023-07-20T13:49:13;3.93;;;1.20;;
50066;SDS011;35952;52.524;13.340;2023-07-20T13:51:39;2.80;;;1.40;;
50066;SDS011;35952;52.524;13.340;2023-07-20T13:54:05;2.37;;;1.50;;
50066;SDS011;35952;52.524;13.340;2023-07-20T13:56:31;1.30;;;1.10;;
50066;SDS011;35952;52.524;13.340;2023-07-20T13:58:56;1.47;;;1.33;;
50066;SDS011;35952;52.524;13.340;2023-07-20T14:01:22;1.60;;;1.50;;
50066;SDS011;35952;52.524;13.340;2023-07-20T14:03:49;1.40;;;1.30;;
50066;SDS011;35952;52.524;13.340;2023-07-20T14:06:15;1.70;;;1.40;;
50066;SDS011;35952;52.524;13.340;2023-07-20T14:08:41;1.07;;;0.90;;
50066;SDS011;35952;52.524;13.340;2023-07-20T14:11:06;2.23;;;1.07;;
50066;SDS011;35952;52.524;13.340;2023-07-20T14:13:32;1.00;;;0.80;;
50066;SDS011;35952;52.524;13.340;2023-07-20T14:15:58;1.10;;;1.00;;
50066;SDS011;35952;52.524;13.340;2023-07-20T14:18:23;1.67;;;1.40;;
50066;SDS011;35952;52.524;13.340;2023-07-20T14:20:49;1.53;;;1.20;;
50066;SDS011;35952;52.524;13.340;2023-07-20T14:23:14;1.53;;;1.43;;
50066;SDS011;35952;52.524;13.340;2023-07-20T14:25:40;1.90;;;1.70;;
50066;SDS011;35952;52.524;13.340;2023-07-20T14:28:05;1.63;;;1.53;;
50066;SDS011;35952;52.524;13.340;2023-07-20T14:30:32;1.47;;;1.37;;
50066;SDS011;35952;52.524;13.340;2023-07-20T14:32:58;1.20;;;1.10;;
50066;SDS011;35952;52.524;13.340;2023-07-20T14:35:23;1.93;;;1.27;;
50066;SDS011;35952;52.524;13.340;2023-07-20T14:37:49;2.13;;;1.30;;
50066;SDS011;35952;52.524;13.340;2023-07-20T14:40:15;5.30;;;1.63;;
50066;SDS011;35952;52.524;13.340;2023-07-20T14:42:41;1.50;;;1.40;;